sensor_id;sensor_type;location;lat;lon;timestamp;P1;durP1;ratioP1;P2;durP2;ratioP2
52894;SDS011;38759;53.396;6.722;2024-03-23T00:56:17;20.40;;;3.47;;
52894;SDS011;38759;53.396;6.722;2024-03-23T00:58:43;32.78;;;4.55;;
52894;SDS011;38759;53.396;6.722;2024-03-23T01:01:08;35.40;;;5.00;;
52894;SDS011;38759;53.396;6.722;2024-03-23T01:03:34;30.60;;;4.57;;
52894;SDS011;38759;53.396;6.722;2024-03-23T01:06:00;25.23;;;4.35;;
52894;SDS011;38759;53.396;6.722;2024-03-23T01:08:26;26.27;;;3.63;;
52894;SDS011;38759;53.396;6.722;2024-03-23T01:10:56;20.38;;;4.18;;
52894;SDS011;38759;53.396;6.722;2024-03-23T01:13:22;25.38;;;4.93;;
52894;SDS011;38759;53.396;6.722;2024-03-23T01:15:52;29.30;;;5.18;;
52894;SDS011;38759;53.396;6.722;2024-03-23T01:18:19;40.03;;;5.32;;
52894;SDS011;38759;53.396;6.722;2024-03-23T01:20:45;25.50;;;3.95;;
52894;SDS011;38759;53.396;6.722;2024-03-23T01:23:11;22.35;;;3.92;;
52894;SDS011;38759;53.396;6.722;2024-03-23T01:25:37;22.80;;;3.53;;
52894;SDS011;38759;53.396;6.722;2024-03-23T01:28:03;25.13;;;4.50;;
52894;SDS011;38759;53.396;6.722;2024-03-23T01:30:29;24.35;;;4.55;;
52894;SDS011;38759;53.396;6.722;2024-03-23T01:32:55;26.42;;;5.00;;
52894;SDS011;38759;53.396;6.722;2024-03-23T01:35:21;27.35;;;4.75;;
52894;SDS011;38759;53.396;6.722;2024-03-23T01:37:47;29.73;;;4.53;;
52894;SDS011;38759;53.396;6.722;2024-03-23T01:40:12;23.73;;;5.22;;
52894;SDS011;38759;53.396;6.722;2024-03-23T01:42:38;29.63;;;4.22;;
52894;SDS011;38759;53.396;6.722;2024-03-23T01:45:08;31.60;;;5.72;;
52894;SDS011;38759;53.396;6.722;2024-03-23T01:47:37;22.52;;;3.78;;
52894;SDS011;38759;53.396;6.722;2024-03-23T01:50:03;22.05;;;4.15;;
52894;SDS011;38759;53.396;6.722;2024-03-23T01:52:29;29.15;;;5.13;;
52894;SDS011;38759;53.396;6.722;2024-03-23T01:54:55;29.83;;;5.47;;
52894;SDS011;38759;53.396;6.722;2024-03-23T01:57:21;36.88;;;5.30;;
52894;SDS011;38759;53.396;6.722;2024-03-23T01:59:47;24.88;;;4.82;;
52894;SDS011;38759;53.396;6.722;2024-03-23T02:02:13;27.25;;;5.10;;
52894;SDS011;38759;53.396;6.722;2024-03-23T02:04:39;27.42;;;4.45;;
52894;SDS011;38759;53.396;6.722;2024-03-23T02:07:08;27.85;;;4.93;;
52894;SDS011;38759;53.396;6.722;2024-03-23T02:09:34;24.20;;;4.22;;
52894;SDS011;38759;53.396;6.722;2024-03-23T02:12:01;21.52;;;4.43;;
52894;SDS011;38759;53.396;6.722;2024-03-23T02:14:28;29.65;;;4.03;;
52894;SDS011;38759;53.396;6.722;2024-03-23T02:16:53;32.63;;;4.78;;
52894;SDS011;38759;53.396;6.722;2024-03-23T02:19:19;20.27;;;4.15;;
52894;SDS011;38759;53.396;6.722;2024-03-23T02:21:45;23.30;;;4.15;;
52894;SDS011;38759;53.396;6.722;2024-03-23T02:24:12;22.08;;;3.95;;
52894;SDS011;38759;53.396;6.722;2024-03-23T02:26:37;30.95;;;5.55;;
52894;SDS011;38759;53.396;6.722;2024-03-23T02:29:03;27.02;;;3.75;;
52894;SDS011;38759;53.396;6.722;2024-03-23T02:31:29;21.27;;;4.32;;
52894;SDS011;38759;53.396;6.722;2024-03-23T02:33:54;26.00;;;4.00;;
52894;SDS011;38759;53.396;6.722;2024-03-23T02:36:20;15.05;;;3.47;;
52894;SDS011;38759;53.396;6.722;2024-03-23T02:38:46;23.75;;;4.18;;
52894;SDS011;38759;53.396;6.722;2024-03-23T02:41:12;28.75;;;4.38;;
52894;SDS011;38759;53.396;6.722;2024-03-23T02:43:38;36.38;;;4.32;;
52894;SDS011;38759;53.396;6.722;2024-03-23T02:46:04;36.00;;;4.75;;
52894;SDS011;38759;53.396;6.722;2024-03-23T02:48:30;35.35;;;5.00;;
52894;SDS011;38759;53.396;6.722;2024-03-23T02:50:55;24.27;;;4.15;;
52894;SDS011;38759;53.396;6.722;2024-03-23T02:53:21;18.38;;;3.55;;
52894;SDS011;38759;53.396;6.722;2024-03-23T02:55:47;23.05;;;3.95;;
52894;SDS011;38759;53.396;6.722;2024-03-23T02:58:12;21.15;;;3.60;;
52894;SDS011;38759;53.396;6.722;2024-03-23T03:00:38;24.50;;;4.03;;
52894;SDS011;38759;53.396;6.722;2024-03-23T03:03:04;20.52;;;3.40;;
52894;SDS011;38759;53.396;6.722;2024-03-23T03:05:30;24.13;;;4.07;;
52894;SDS011;38759;53.396;6.722;2024-03-23T03:07:55;26.42;;;3.90;;
52894;SDS011;38759;53.396;6.722;2024-03-23T03:10:21;26.13;;;4.47;;
52894;SDS011;38759;53.396;6.722;2024-03-23T03:12:47;32.65;;;4.20;;
52894;SDS011;38759;53.396;6.722;2024-03-23T03:15:12;20.02;;;3.25;;
52894;SDS011;38759;53.396;6.722;2024-03-23T03:17:38;27.13;;;4.78;;
52894;SDS011;38759;53.396;6.722;2024-03-23T03:20:04;27.90;;;5.03;;
52894;SDS011;38759;53.396;6.722;2024-03-23T03:22:30;23.17;;;3.88;;
52894;SDS011;38759;53.396;6.722;2024-03-23T03:24:56;24.70;;;4.03;;
52894;SDS011;38759;53.396;6.722;2024-03-23T03:27:21;24.92;;;3.90;;
52894;SDS011;38759;53.396;6.722;2024-03-23T03:29:48;19.50;;;4.72;;
52894;SDS011;38759;53.396;6.722;2024-03-23T03:32:13;22.65;;;3.92;;
52894;SDS011;38759;53.396;6.722;2024-03-23T03:34:39;20.88;;;3.13;;
52894;SDS011;38759;53.396;6.722;2024-03-23T03:37:05;20.77;;;3.55;;
52894;SDS011;38759;53.396;6.722;2024-03-23T03:39:30;16.70;;;3.88;;
52894;SDS011;38759;53.396;6.722;2024-03-23T03:41:56;22.00;;;3.35;;
52894;SDS011;38759;53.396;6.722;2024-03-23T03:44:22;15.65;;;2.83;;
52894;SDS011;38759;53.396;6.722;2024-03-23T03:46:47;14.10;;;2.70;;
52894;SDS011;38759;53.396;6.722;2024-03-23T03:49:13;15.88;;;3.22;;
52894;SDS011;38759;53.396;6.722;2024-03-23T03:51:38;18.38;;;3.50;;
52894;SDS011;38759;53.396;6.722;2024-03-23T03:54:04;21.45;;;3.38;;
52894;SDS011;38759;53.396;6.722;2024-03-23T03:56:30;16.88;;;3.05;;
52894;SDS011;38759;53.396;6.722;2024-03-23T03:58:55;16.75;;;2.92;;
52894;SDS011;38759;53.396;6.722;2024-03-23T04:01:21;13.77;;;2.50;;
52894;SDS011;38759;53.396;6.722;2024-03-23T04:03:47;16.92;;;3.08;;
52894;SDS011;38759;53.396;6.722;2024-03-23T04:06:18;30.33;;;3.50;;
52894;SDS011;38759;53.396;6.722;2024-03-23T04:08:44;20.90;;;3.30;;
52894;SDS011;38759;53.396;6.722;2024-03-23T04:11:10;29.05;;;2.83;;
52894;SDS011;38759;53.396;6.722;2024-03-23T04:13:36;21.55;;;3.00;;
52894;SDS011;38759;53.396;6.722;2024-03-23T04:16:01;18.25;;;2.85;;
52894;SDS011;38759;53.396;6.722;2024-03-23T04:18:27;21.13;;;3.38;;
52894;SDS011;38759;53.396;6.722;2024-03-23T04:20:53;24.98;;;2.95;;
52894;SDS011;38759;53.396;6.722;2024-03-23T04:23:18;17.88;;;2.92;;
52894;SDS011;38759;53.396;6.722;2024-03-23T04:25:44;20.88;;;2.85;;
52894;SDS011;38759;53.396;6.722;2024-03-23T04:28:10;23.17;;;3.40;;
52894;SDS011;38759;53.396;6.722;2024-03-23T04:30:35;21.58;;;3.55;;
52894;SDS011;38759;53.396;6.722;2024-03-23T04:33:02;19.80;;;2.92;;
52894;SDS011;38759;53.396;6.722;2024-03-23T04:35:27;25.55;;;2.80;;
52894;SDS011;38759;53.396;6.722;2024-03-23T04:37:53;19.80;;;3.00;;
52894;SDS011;38759;53.396;6.722;2024-03-23T04:40:20;27.10;;;3.28;;
52894;SDS011;38759;53.396;6.722;2024-03-23T04:42:46;15.73;;;2.80;;
52894;SDS011;38759;53.396;6.722;2024-03-23T04:45:12;13.15;;;2.95;;
52894;SDS011;38759;53.396;6.722;2024-03-23T04:47:38;26.45;;;3.17;;
52894;SDS011;38759;53.396;6.722;2024-03-23T04:50:04;13.98;;;2.95;;
52894;SDS011;38759;53.396;6.722;2024-03-23T04:52:30;19.85;;;2.40;;
52894;SDS011;38759;53.396;6.722;2024-03-23T04:54:56;13.45;;;2.45;;
52894;SDS011;38759;53.396;6.722;2024-03-23T04:57:21;13.32;;;2.10;;
52894;SDS011;38759;53.396;6.722;2024-03-23T04:59:47;12.90;;;3.22;;
52894;SDS011;38759;53.396;6.722;2024-03-23T05:02:14;13.20;;;2.17;;
52894;SDS011;38759;53.396;6.722;2024-03-23T05:04:40;18.35;;;2.70;;
52894;SDS011;38759;53.396;6.722;2024-03-23T05:07:06;15.43;;;2.20;;
52894;SDS011;38759;53.396;6.722;2024-03-23T05:09:31;16.50;;;2.63;;
52894;SDS011;38759;53.396;6.722;2024-03-23T05:11:58;23.80;;;2.25;;
52894;SDS011;38759;53.396;6.722;2024-03-23T05:14:25;13.60;;;2.17;;
52894;SDS011;38759;53.396;6.722;2024-03-23T05:16:51;23.10;;;3.17;;
52894;SDS011;38759;53.396;6.722;2024-03-23T05:19:17;18.27;;;2.28;;
52894;SDS011;38759;53.396;6.722;2024-03-23T05:21:43;18.75;;;2.72;;
52894;SDS011;38759;53.396;6.722;2024-03-23T05:24:09;18.88;;;2.72;;
52894;SDS011;38759;53.396;6.722;2024-03-23T05:26:35;22.48;;;2.78;;
52894;SDS011;38759;53.396;6.722;2024-03-23T05:29:01;19.25;;;3.10;;
52894;SDS011;38759;53.396;6.722;2024-03-23T05:31:28;17.77;;;2.30;;
52894;SDS011;38759;53.396;6.722;2024-03-23T05:33:56;22.35;;;3.05;;
52894;SDS011;38759;53.396;6.722;2024-03-23T05:36:22;16.98;;;2.42;;
52894;SDS011;38759;53.396;6.722;2024-03-23T05:38:51;18.77;;;2.58;;
52894;SDS011;38759;53.396;6.722;2024-03-23T05:41:17;15.40;;;2.55;;
52894;SDS011;38759;53.396;6.722;2024-03-23T05:43:42;29.48;;;2.47;;
52894;SDS011;38759;53.396;6.722;2024-03-23T05:46:08;28.88;;;2.97;;
52894;SDS011;38759;53.396;6.722;2024-03-23T05:48:35;22.20;;;2.83;;
52894;SDS011;38759;53.396;6.722;2024-03-23T05:51:01;23.70;;;2.50;;
52894;SDS011;38759;53.396;6.722;2024-03-23T05:53:27;19.40;;;2.45;;
52894;SDS011;38759;53.396;6.722;2024-03-23T05:56:02;20.73;;;2.70;;
52894;SDS011;38759;53.396;6.722;2024-03-23T05:58:29;13.13;;;2.20;;
52894;SDS011;38759;53.396;6.722;2024-03-23T06:00:58;14.70;;;2.08;;
52894;SDS011;38759;53.396;6.722;2024-03-23T06:03:25;19.33;;;3.10;;
52894;SDS011;38759;53.396;6.722;2024-03-23T06:05:51;9.25;;;2.70;;
52894;SDS011;38759;53.396;6.722;2024-03-23T06:08:18;18.58;;;3.17;;
52894;SDS011;38759;53.396;6.722;2024-03-23T06:10:44;16.90;;;2.70;;
52894;SDS011;38759;53.396;6.722;2024-03-23T06:13:13;14.63;;;2.45;;
52894;SDS011;38759;53.396;6.722;2024-03-23T06:15:39;18.92;;;2.30;;
52894;SDS011;38759;53.396;6.722;2024-03-23T06:18:05;17.98;;;2.30;;
52894;SDS011;38759;53.396;6.722;2024-03-23T06:20:32;20.42;;;2.50;;
52894;SDS011;38759;53.396;6.722;2024-03-23T06:22:58;18.80;;;2.35;;
52894;SDS011;38759;53.396;6.722;2024-03-23T06:25:25;14.40;;;2.63;;
52894;SDS011;38759;53.396;6.722;2024-03-23T06:27:50;19.38;;;3.60;;
52894;SDS011;38759;53.396;6.722;2024-03-23T06:30:16;12.63;;;2.30;;
52894;SDS011;38759;53.396;6.722;2024-03-23T06:32:41;15.82;;;2.30;;
52894;SDS011;38759;53.396;6.722;2024-03-23T06:35:07;20.95;;;2.03;;
52894;SDS011;38759;53.396;6.722;2024-03-23T06:37:35;17.98;;;2.28;;
52894;SDS011;38759;53.396;6.722;2024-03-23T06:40:01;11.13;;;1.60;;
52894;SDS011;38759;53.396;6.722;2024-03-23T06:42:29;16.35;;;2.40;;
52894;SDS011;38759;53.396;6.722;2024-03-23T06:44:55;22.25;;;3.08;;
52894;SDS011;38759;53.396;6.722;2024-03-23T06:47:21;16.60;;;2.72;;
52894;SDS011;38759;53.396;6.722;2024-03-23T06:49:46;15.30;;;2.60;;
52894;SDS011;38759;53.396;6.722;2024-03-23T06:52:12;19.45;;;2.47;;
52894;SDS011;38759;53.396;6.722;2024-03-23T06:54:37;15.02;;;2.25;;
52894;SDS011;38759;53.396;6.722;2024-03-23T06:57:03;13.10;;;1.67;;
52894;SDS011;38759;53.396;6.722;2024-03-23T06:59:29;14.82;;;3.15;;
52894;SDS011;38759;53.396;6.722;2024-03-23T07:01:55;9.80;;;2.38;;
52894;SDS011;38759;53.396;6.722;2024-03-23T07:04:20;12.77;;;2.53;;
52894;SDS011;38759;53.396;6.722;2024-03-23T07:06:46;17.25;;;2.38;;
52894;SDS011;38759;53.396;6.722;2024-03-23T07:09:12;17.00;;;2.53;;
52894;SDS011;38759;53.396;6.722;2024-03-23T07:11:37;9.38;;;1.70;;
52894;SDS011;38759;53.396;6.722;2024-03-23T07:14:03;16.15;;;2.20;;
52894;SDS011;38759;53.396;6.722;2024-03-23T07:16:29;9.10;;;1.80;;
52894;SDS011;38759;53.396;6.722;2024-03-23T07:18:55;13.80;;;2.00;;
52894;SDS011;38759;53.396;6.722;2024-03-23T07:21:22;17.27;;;2.22;;
52894;SDS011;38759;53.396;6.722;2024-03-23T07:23:48;8.50;;;2.00;;
52894;SDS011;38759;53.396;6.722;2024-03-23T07:26:13;14.30;;;2.35;;
52894;SDS011;38759;53.396;6.722;2024-03-23T07:28:40;13.27;;;2.65;;
52894;SDS011;38759;53.396;6.722;2024-03-23T07:31:12;10.18;;;2.10;;
52894;SDS011;38759;53.396;6.722;2024-03-23T07:33:43;19.08;;;2.10;;
52894;SDS011;38759;53.396;6.722;2024-03-23T07:36:10;28.98;;;2.70;;
52894;SDS011;38759;53.396;6.722;2024-03-23T07:38:36;17.60;;;3.25;;
52894;SDS011;38759;53.396;6.722;2024-03-23T07:41:06;8.18;;;1.70;;
52894;SDS011;38759;53.396;6.722;2024-03-23T07:43:32;14.63;;;2.90;;
52894;SDS011;38759;53.396;6.722;2024-03-23T07:45:58;15.52;;;2.08;;
52894;SDS011;38759;53.396;6.722;2024-03-23T07:48:24;10.80;;;1.90;;
52894;SDS011;38759;53.396;6.722;2024-03-23T07:53:29;10.18;;;2.08;;
52894;SDS011;38759;53.396;6.722;2024-03-23T07:56:05;17.65;;;2.13;;
52894;SDS011;38759;53.396;6.722;2024-03-23T07:58:35;16.48;;;3.53;;
52894;SDS011;38759;53.396;6.722;2024-03-23T08:01:08;14.27;;;2.65;;
52894;SDS011;38759;53.396;6.722;2024-03-23T08:03:37;17.20;;;2.60;;
52894;SDS011;38759;53.396;6.722;2024-03-23T08:08:40;17.20;;;2.63;;
52894;SDS011;38759;53.396;6.722;2024-03-23T08:11:06;12.52;;;2.58;;
52894;SDS011;38759;53.396;6.722;2024-03-23T08:13:33;7.88;;;1.90;;
52894;SDS011;38759;53.396;6.722;2024-03-23T08:15:59;11.70;;;2.10;;
52894;SDS011;38759;53.396;6.722;2024-03-23T08:18:26;10.80;;;2.42;;
52894;SDS011;38759;53.396;6.722;2024-03-23T08:20:58;16.20;;;2.60;;
52894;SDS011;38759;53.396;6.722;2024-03-23T08:23:25;14.00;;;2.38;;
52894;SDS011;38759;53.396;6.722;2024-03-23T08:25:52;10.98;;;2.20;;
52894;SDS011;38759;53.396;6.722;2024-03-23T08:28:22;19.65;;;2.97;;
52894;SDS011;38759;53.396;6.722;2024-03-23T08:30:48;11.88;;;2.17;;
52894;SDS011;38759;53.396;6.722;2024-03-23T08:33:14;10.68;;;2.30;;
52894;SDS011;38759;53.396;6.722;2024-03-23T08:35:41;10.90;;;2.30;;
52894;SDS011;38759;53.396;6.722;2024-03-23T08:38:06;10.32;;;2.00;;
52894;SDS011;38759;53.396;6.722;2024-03-23T08:40:32;15.55;;;2.53;;
52894;SDS011;38759;53.396;6.722;2024-03-23T08:42:58;13.30;;;2.55;;
52894;SDS011;38759;53.396;6.722;2024-03-23T08:45:27;15.63;;;2.30;;
52894;SDS011;38759;53.396;6.722;2024-03-23T08:47:52;8.38;;;2.05;;
52894;SDS011;38759;53.396;6.722;2024-03-23T08:50:18;11.65;;;1.80;;
52894;SDS011;38759;53.396;6.722;2024-03-23T08:52:44;10.90;;;2.05;;
52894;SDS011;38759;53.396;6.722;2024-03-23T08:55:10;12.65;;;1.92;;
52894;SDS011;38759;53.396;6.722;2024-03-23T08:57:35;10.15;;;1.98;;
52894;SDS011;38759;53.396;6.722;2024-03-23T09:00:01;8.48;;;1.83;;
52894;SDS011;38759;53.396;6.722;2024-03-23T09:02:28;14.55;;;2.25;;
52894;SDS011;38759;53.396;6.722;2024-03-23T09:04:54;14.70;;;2.88;;
52894;SDS011;38759;53.396;6.722;2024-03-23T09:07:19;13.85;;;2.58;;
52894;SDS011;38759;53.396;6.722;2024-03-23T09:09:45;8.32;;;2.20;;
52894;SDS011;38759;53.396;6.722;2024-03-23T09:12:11;16.00;;;2.50;;
52894;SDS011;38759;53.396;6.722;2024-03-23T09:14:36;16.27;;;2.28;;
52894;SDS011;38759;53.396;6.722;2024-03-23T09:17:02;10.38;;;2.35;;
52894;SDS011;38759;53.396;6.722;2024-03-23T09:19:28;11.10;;;2.17;;
52894;SDS011;38759;53.396;6.722;2024-03-23T09:21:54;14.55;;;2.47;;
52894;SDS011;38759;53.396;6.722;2024-03-23T09:24:20;13.77;;;2.75;;
52894;SDS011;38759;53.396;6.722;2024-03-23T09:26:46;12.80;;;1.92;;
52894;SDS011;38759;53.396;6.722;2024-03-23T09:29:12;7.20;;;1.38;;
52894;SDS011;38759;53.396;6.722;2024-03-23T09:31:37;9.57;;;1.83;;
52894;SDS011;38759;53.396;6.722;2024-03-23T09:34:03;4.50;;;0.93;;
52894;SDS011;38759;53.396;6.722;2024-03-23T09:36:29;8.82;;;1.35;;
52894;SDS011;38759;53.396;6.722;2024-03-23T09:38:55;8.27;;;1.67;;
52894;SDS011;38759;53.396;6.722;2024-03-23T09:41:20;7.65;;;1.58;;
52894;SDS011;38759;53.396;6.722;2024-03-23T09:43:46;7.05;;;1.20;;
52894;SDS011;38759;53.396;6.722;2024-03-23T09:46:13;12.95;;;1.55;;
52894;SDS011;38759;53.396;6.722;2024-03-23T09:48:39;12.30;;;1.70;;
52894;SDS011;38759;53.396;6.722;2024-03-23T09:51:05;10.73;;;1.90;;
52894;SDS011;38759;53.396;6.722;2024-03-23T09:53:34;6.53;;;1.50;;
52894;SDS011;38759;53.396;6.722;2024-03-23T09:55:59;5.90;;;1.67;;
52894;SDS011;38759;53.396;6.722;2024-03-23T09:58:25;8.57;;;1.85;;
52894;SDS011;38759;53.396;6.722;2024-03-23T10:00:51;16.60;;;2.42;;
52894;SDS011;38759;53.396;6.722;2024-03-23T10:03:16;10.65;;;1.90;;
52894;SDS011;38759;53.396;6.722;2024-03-23T10:05:42;9.85;;;2.10;;
52894;SDS011;38759;53.396;6.722;2024-03-23T10:10:40;12.88;;;1.85;;
52894;SDS011;38759;53.396;6.722;2024-03-23T10:13:06;14.20;;;1.85;;
52894;SDS011;38759;53.396;6.722;2024-03-23T10:15:35;13.05;;;2.05;;
52894;SDS011;38759;53.396;6.722;2024-03-23T10:20:43;10.98;;;1.98;;
52894;SDS011;38759;53.396;6.722;2024-03-23T10:23:17;10.98;;;1.40;;
52894;SDS011;38759;53.396;6.722;2024-03-23T10:25:43;13.23;;;1.80;;
52894;SDS011;38759;53.396;6.722;2024-03-23T10:28:10;12.13;;;1.60;;
52894;SDS011;38759;53.396;6.722;2024-03-23T10:30:36;17.38;;;2.28;;
52894;SDS011;38759;53.396;6.722;2024-03-23T10:33:11;12.10;;;2.35;;
52894;SDS011;38759;53.396;6.722;2024-03-23T10:38:07;19.98;;;2.35;;
52894;SDS011;38759;53.396;6.722;2024-03-23T10:40:36;12.55;;;2.00;;
52894;SDS011;38759;53.396;6.722;2024-03-23T10:43:05;16.83;;;2.55;;
52894;SDS011;38759;53.396;6.722;2024-03-23T10:45:33;19.00;;;2.63;;
52894;SDS011;38759;53.396;6.722;2024-03-23T10:47:59;10.82;;;1.85;;
52894;SDS011;38759;53.396;6.722;2024-03-23T10:50:25;9.63;;;1.70;;
52894;SDS011;38759;53.396;6.722;2024-03-23T10:52:52;9.63;;;1.27;;
52894;SDS011;38759;53.396;6.722;2024-03-23T10:55:20;10.05;;;1.40;;
52894;SDS011;38759;53.396;6.722;2024-03-23T10:57:55;9.63;;;1.63;;
52894;SDS011;38759;53.396;6.722;2024-03-23T11:00:23;8.35;;;1.40;;
52894;SDS011;38759;53.396;6.722;2024-03-23T11:02:50;13.30;;;1.65;;
52894;SDS011;38759;53.396;6.722;2024-03-23T11:05:31;13.20;;;2.25;;
52894;SDS011;38759;53.396;6.722;2024-03-23T11:07:57;8.68;;;1.90;;
52894;SDS011;38759;53.396;6.722;2024-03-23T11:10:29;12.75;;;2.20;;
52894;SDS011;38759;53.396;6.722;2024-03-23T11:12:56;9.63;;;1.90;;
52894;SDS011;38759;53.396;6.722;2024-03-23T11:15:22;15.63;;;2.15;;
52894;SDS011;38759;53.396;6.722;2024-03-23T11:20:34;14.75;;;2.33;;
52894;SDS011;38759;53.396;6.722;2024-03-23T11:23:00;11.88;;;2.08;;
52894;SDS011;38759;53.396;6.722;2024-03-23T11:25:27;23.00;;;2.60;;
52894;SDS011;38759;53.396;6.722;2024-03-23T11:27:53;12.10;;;2.05;;
52894;SDS011;38759;53.396;6.722;2024-03-23T11:30:25;23.35;;;3.67;;
52894;SDS011;38759;53.396;6.722;2024-03-23T11:32:52;15.23;;;1.70;;
52894;SDS011;38759;53.396;6.722;2024-03-23T11:35:29;13.10;;;1.45;;
52894;SDS011;38759;53.396;6.722;2024-03-23T11:38:05;12.40;;;1.55;;
52894;SDS011;38759;53.396;6.722;2024-03-23T11:40:32;9.77;;;1.80;;
52894;SDS011;38759;53.396;6.722;2024-03-23T11:43:00;14.32;;;1.70;;
52894;SDS011;38759;53.396;6.722;2024-03-23T11:45:27;14.90;;;1.98;;
52894;SDS011;38759;53.396;6.722;2024-03-23T11:50:43;9.65;;;2.00;;
52894;SDS011;38759;53.396;6.722;2024-03-23T11:53:17;9.30;;;1.90;;
52894;SDS011;38759;53.396;6.722;2024-03-23T11:58:14;11.65;;;1.58;;
52894;SDS011;38759;53.396;6.722;2024-03-23T12:00:41;13.02;;;1.27;;
52894;SDS011;38759;53.396;6.722;2024-03-23T12:03:07;14.48;;;1.95;;
52894;SDS011;38759;53.396;6.722;2024-03-23T12:05:35;8.23;;;1.20;;
52894;SDS011;38759;53.396;6.722;2024-03-23T12:10:53;7.63;;;1.33;;
52894;SDS011;38759;53.396;6.722;2024-03-23T12:13:29;6.00;;;1.10;;
52894;SDS011;38759;53.396;6.722;2024-03-23T12:15:55;8.60;;;1.40;;
52894;SDS011;38759;53.396;6.722;2024-03-23T12:18:39;10.40;;;1.15;;
52894;SDS011;38759;53.396;6.722;2024-03-23T12:21:06;7.63;;;1.25;;
52894;SDS011;38759;53.396;6.722;2024-03-23T12:23:33;8.38;;;1.40;;
52894;SDS011;38759;53.396;6.722;2024-03-23T12:25:59;11.85;;;1.40;;
52894;SDS011;38759;53.396;6.722;2024-03-23T12:28:25;7.65;;;1.85;;
52894;SDS011;38759;53.396;6.722;2024-03-23T12:30:51;12.95;;;1.67;;
52894;SDS011;38759;53.396;6.722;2024-03-23T12:33:20;10.65;;;1.65;;
52894;SDS011;38759;53.396;6.722;2024-03-23T12:35:46;18.60;;;1.90;;
52894;SDS011;38759;53.396;6.722;2024-03-23T12:38:15;13.32;;;1.98;;
52894;SDS011;38759;53.396;6.722;2024-03-23T12:40:42;16.83;;;2.53;;
52894;SDS011;38759;53.396;6.722;2024-03-23T12:43:12;17.60;;;2.75;;
52894;SDS011;38759;53.396;6.722;2024-03-23T12:45:38;10.75;;;2.25;;
52894;SDS011;38759;53.396;6.722;2024-03-23T12:48:04;14.82;;;1.88;;
52894;SDS011;38759;53.396;6.722;2024-03-23T12:50:30;8.75;;;1.52;;
52894;SDS011;38759;53.396;6.722;2024-03-23T12:52:55;6.18;;;1.17;;
52894;SDS011;38759;53.396;6.722;2024-03-23T12:55:21;8.18;;;1.02;;
52894;SDS011;38759;53.396;6.722;2024-03-23T12:57:47;13.27;;;2.05;;
52894;SDS011;38759;53.396;6.722;2024-03-23T13:00:13;9.43;;;1.58;;
52894;SDS011;38759;53.396;6.722;2024-03-23T13:02:40;10.77;;;1.95;;
52894;SDS011;38759;53.396;6.722;2024-03-23T13:05:06;9.00;;;1.80;;
52894;SDS011;38759;53.396;6.722;2024-03-23T13:07:34;13.95;;;1.55;;
52894;SDS011;38759;53.396;6.722;2024-03-23T13:10:00;13.98;;;1.95;;
52894;SDS011;38759;53.396;6.722;2024-03-23T13:12:26;5.50;;;1.30;;
52894;SDS011;38759;53.396;6.722;2024-03-23T13:14:51;10.63;;;2.03;;
52894;SDS011;38759;53.396;6.722;2024-03-23T13:17:17;16.50;;;1.95;;
52894;SDS011;38759;53.396;6.722;2024-03-23T13:19:43;6.35;;;1.58;;
52894;SDS011;38759;53.396;6.722;2024-03-23T13:22:09;5.53;;;1.20;;
52894;SDS011;38759;53.396;6.722;2024-03-23T13:24:36;18.15;;;1.80;;
52894;SDS011;38759;53.396;6.722;2024-03-23T13:27:02;7.78;;;1.17;;
52894;SDS011;38759;53.396;6.722;2024-03-23T13:29:30;8.95;;;1.35;;
52894;SDS011;38759;53.396;6.722;2024-03-23T13:31:56;9.52;;;1.85;;
52894;SDS011;38759;53.396;6.722;2024-03-23T13:34:21;10.63;;;1.88;;
52894;SDS011;38759;53.396;6.722;2024-03-23T13:36:47;8.95;;;1.73;;
52894;SDS011;38759;53.396;6.722;2024-03-23T13:39:13;6.63;;;1.65;;
52894;SDS011;38759;53.396;6.722;2024-03-23T13:41:40;14.70;;;2.08;;
52894;SDS011;38759;53.396;6.722;2024-03-23T13:44:07;11.65;;;1.90;;
52894;SDS011;38759;53.396;6.722;2024-03-23T13:46:35;12.98;;;2.00;;
52894;SDS011;38759;53.396;6.722;2024-03-23T13:49:01;12.20;;;1.95;;
52894;SDS011;38759;53.396;6.722;2024-03-23T13:51:27;24.63;;;2.65;;
52894;SDS011;38759;53.396;6.722;2024-03-23T13:53:56;16.88;;;3.80;;
52894;SDS011;38759;53.396;6.722;2024-03-23T13:56:22;14.30;;;2.42;;
52894;SDS011;38759;53.396;6.722;2024-03-23T13:58:48;17.00;;;2.42;;
52894;SDS011;38759;53.396;6.722;2024-03-23T14:01:14;9.88;;;1.73;;
52894;SDS011;38759;53.396;6.722;2024-03-23T14:03:41;16.45;;;1.88;;
52894;SDS011;38759;53.396;6.722;2024-03-23T14:06:10;21.35;;;2.00;;
52894;SDS011;38759;53.396;6.722;2024-03-23T14:08:36;13.05;;;2.08;;
52894;SDS011;38759;53.396;6.722;2024-03-23T14:11:06;21.40;;;2.50;;
52894;SDS011;38759;53.396;6.722;2024-03-23T14:13:33;9.98;;;1.52;;
52894;SDS011;38759;53.396;6.722;2024-03-23T14:15:59;7.70;;;1.42;;
52894;SDS011;38759;53.396;6.722;2024-03-23T14:18:25;10.32;;;1.75;;
52894;SDS011;38759;53.396;6.722;2024-03-23T14:20:51;13.98;;;2.30;;
52894;SDS011;38759;53.396;6.722;2024-03-23T14:23:18;13.40;;;1.73;;
52894;SDS011;38759;53.396;6.722;2024-03-23T14:25:44;12.57;;;1.95;;
52894;SDS011;38759;53.396;6.722;2024-03-23T14:28:10;13.30;;;1.80;;
52894;SDS011;38759;53.396;6.722;2024-03-23T14:30:42;16.35;;;2.28;;
52894;SDS011;38759;53.396;6.722;2024-03-23T14:33:08;14.95;;;2.30;;
52894;SDS011;38759;53.396;6.722;2024-03-23T14:35:34;12.10;;;1.50;;
52894;SDS011;38759;53.396;6.722;2024-03-23T14:38:00;8.25;;;1.60;;
52894;SDS011;38759;53.396;6.722;2024-03-23T14:40:26;9.57;;;1.70;;
52894;SDS011;38759;53.396;6.722;2024-03-23T14:42:52;8.57;;;1.88;;
52894;SDS011;38759;53.396;6.722;2024-03-23T14:45:21;13.27;;;1.38;;
52894;SDS011;38759;53.396;6.722;2024-03-23T14:47:49;11.65;;;2.08;;
52894;SDS011;38759;53.396;6.722;2024-03-23T14:50:17;11.15;;;2.40;;
52894;SDS011;38759;53.396;6.722;2024-03-23T14:52:44;18.77;;;2.58;;
52894;SDS011;38759;53.396;6.722;2024-03-23T14:55:10;11.55;;;2.35;;
52894;SDS011;38759;53.396;6.722;2024-03-23T14:57:37;9.63;;;1.55;;
52894;SDS011;38759;53.396;6.722;2024-03-23T15:00:05;15.95;;;2.22;;
52894;SDS011;38759;53.396;6.722;2024-03-23T15:02:36;16.80;;;2.22;;
52894;SDS011;38759;53.396;6.722;2024-03-23T15:05:03;10.23;;;2.30;;
52894;SDS011;38759;53.396;6.722;2024-03-23T15:07:30;13.40;;;2.10;;
52894;SDS011;38759;53.396;6.722;2024-03-23T15:09:56;15.93;;;2.10;;
52894;SDS011;38759;53.396;6.722;2024-03-23T15:12:21;10.43;;;2.03;;
52894;SDS011;38759;53.396;6.722;2024-03-23T15:14:47;11.50;;;2.08;;
52894;SDS011;38759;53.396;6.722;2024-03-23T15:17:13;18.10;;;2.70;;
52894;SDS011;38759;53.396;6.722;2024-03-23T15:19:39;17.73;;;2.13;;
52894;SDS011;38759;53.396;6.722;2024-03-23T15:22:07;15.40;;;1.90;;
52894;SDS011;38759;53.396;6.722;2024-03-23T15:24:34;18.65;;;1.90;;
52894;SDS011;38759;53.396;6.722;2024-03-23T15:27:01;15.93;;;2.40;;
52894;SDS011;38759;53.396;6.722;2024-03-23T15:29:27;11.10;;;2.25;;
52894;SDS011;38759;53.396;6.722;2024-03-23T15:31:53;13.95;;;2.35;;
52894;SDS011;38759;53.396;6.722;2024-03-23T15:34:19;10.98;;;1.80;;
52894;SDS011;38759;53.396;6.722;2024-03-23T15:36:47;7.50;;;1.45;;
52894;SDS011;38759;53.396;6.722;2024-03-23T15:39:14;9.55;;;2.13;;
52894;SDS011;38759;53.396;6.722;2024-03-23T15:41:40;8.73;;;1.60;;
52894;SDS011;38759;53.396;6.722;2024-03-23T15:44:06;12.18;;;2.10;;
52894;SDS011;38759;53.396;6.722;2024-03-23T15:46:31;7.85;;;1.40;;
52894;SDS011;38759;53.396;6.722;2024-03-23T15:48:57;19.55;;;2.10;;
52894;SDS011;38759;53.396;6.722;2024-03-23T15:51:23;13.73;;;1.80;;